createdAt,value
2023-01-28T00:01:35.047Z,29.30
2023-01-28T00:06:38.080Z,25.85
2023-01-28T00:11:40.157Z,27.08
2023-01-28T00:16:42.265Z,24.13
2023-01-28T00:21:44.373Z,23.25
2023-01-28T00:26:46.495Z,23.45
2023-01-28T00:31:49.012Z,24.40
2023-01-28T00:36:58.063Z,24.40
2023-01-28T00:42:00.181Z,21.17
2023-01-28T00:47:02.398Z,21.77
2023-01-28T00:52:04.840Z,20.90
2023-01-28T00:57:08.485Z,18.85
2023-01-28T01:02:13.757Z,17.75
2023-01-28T01:07:15.983Z,16.77
2023-01-28T01:12:18.484Z,17.38
2023-01-28T01:17:22.084Z,16.02
2023-01-28T01:22:24.340Z,15.43
2023-01-28T01:27:26.843Z,15.43
2023-01-28T01:32:33.341Z,14.95
2023-01-28T01:37:36.856Z,15.80
2023-01-28T01:42:38.975Z,16.90
2023-01-28T01:47:55.866Z,17.25
2023-01-28T01:53:03.594Z,16.80
2023-01-28T01:58:09.794Z,17.05
2023-01-28T02:03:12.488Z,16.50
2023-01-28T02:08:23.957Z,17.08
2023-01-28T02:13:32.006Z,14.25
2023-01-28T02:18:34.890Z,13.05
2023-01-28T02:23:45.372Z,13.32
2023-01-28T02:29:14.668Z,12.05
2023-01-28T02:34:35.238Z,11.88
2023-01-28T02:39:45.867Z,12.00
2023-01-28T02:44:47.996Z,11.70
2023-01-28T02:49:56.824Z,11.65
2023-01-28T02:55:10.411Z,12.23
2023-01-28T03:00:12.500Z,12.35
2023-01-28T03:05:23.509Z,10.90
2023-01-28T03:10:28.747Z,10.55
2023-01-28T03:15:58.905Z,10.27
2023-01-28T03:21:45.568Z,10.73
2023-01-28T03:27:22.448Z,10.20
2023-01-28T03:32:44.210Z,11.23
2023-01-28T03:37:46.512Z,9.68
2023-01-28T03:42:48.672Z,10.73
2023-01-28T03:47:50.919Z,9.52
2023-01-28T03:52:53.060Z,10.18
2023-01-28T03:57:55.148Z,11.23
2023-01-28T04:02:57.338Z,11.48
2023-01-28T04:07:59.451Z,9.50
2023-01-28T04:13:01.558Z,9.93
2023-01-28T04:18:03.724Z,8.68
2023-01-28T04:23:08.221Z,8.60
2023-01-28T04:28:10.343Z,8.75
2023-01-28T04:33:12.433Z,8.45
2023-01-28T04:38:14.519Z,9.05
2023-01-28T04:43:16.608Z,10.23
2023-01-28T04:48:18.828Z,10.98
2023-01-28T04:53:21.062Z,11.85
2023-01-28T04:58:23.155Z,12.48
2023-01-28T05:03:25.847Z,11.35
2023-01-28T05:08:27.993Z,11.98
2023-01-28T05:13:30.298Z,11.07
2023-01-28T05:18:32.897Z,11.68
2023-01-28T05:23:35.133Z,11.10
2023-01-28T05:28:37.440Z,13.18
2023-01-28T05:33:39.742Z,12.63
2023-01-28T05:38:42.055Z,16.10
2023-01-28T05:43:44.189Z,13.82
2023-01-28T05:48:46.534Z,15.10
2023-01-28T05:53:48.667Z,13.90
2023-01-28T05:58:50.828Z,15.63
2023-01-28T06:03:53.059Z,17.13
2023-01-28T06:08:55.498Z,19.13
2023-01-28T06:13:57.792Z,20.42
2023-01-28T06:19:00.184Z,18.80
2023-01-28T06:24:02.481Z,17.38
2023-01-28T06:29:04.702Z,15.90
2023-01-28T06:34:06.828Z,15.57
2023-01-28T06:39:09.038Z,16.65
2023-01-28T06:44:11.600Z,18.38
2023-01-28T06:49:13.741Z,18.58
2023-01-28T06:54:16.255Z,17.50
2023-01-28T06:59:18.745Z,17.83
2023-01-28T07:04:21.284Z,16.52
2023-01-28T07:09:23.617Z,15.75
2023-01-28T07:14:25.892Z,16.67
2023-01-28T07:19:28.314Z,18.40
2023-01-28T07:24:31.220Z,26.08
2023-01-28T07:29:37.495Z,29.60
2023-01-28T07:34:42.089Z,27.65
2023-01-28T07:39:46.893Z,22.17
2023-01-28T07:44:50.217Z,18.67
2023-01-28T07:49:52.667Z,28.40
2023-01-28T07:54:55.867Z,23.35
2023-01-28T07:59:58.114Z,23.67
2023-01-28T08:05:01.906Z,20.30
2023-01-28T08:10:04.541Z,19.73
2023-01-28T08:15:07.878Z,21.27
2023-01-28T08:20:10.808Z,24.17
2023-01-28T08:25:13.412Z,24.90
2023-01-28T08:30:16.094Z,16.35
2023-01-28T08:35:18.403Z,16.20
2023-01-28T08:40:21.335Z,17.20
2023-01-28T08:45:30.896Z,16.10
2023-01-28T08:50:36.188Z,16.95
2023-01-28T08:55:38.872Z,14.40
2023-01-28T09:00:41.827Z,11.68
2023-01-28T09:05:45.900Z,14.55
2023-01-28T09:10:48.092Z,16.73
2023-01-28T09:15:51.590Z,19.25
2023-01-28T09:20:53.949Z,19.35
2023-01-28T09:26:04.173Z,18.48
2023-01-28T09:36:12.652Z,15.95
2023-01-28T09:41:34.310Z,16.77
2023-01-28T09:46:38.715Z,15.60
2023-01-28T09:51:52.738Z,16.80
2023-01-28T09:57:14.999Z,16.08
2023-01-28T10:02:43.352Z,16.90
2023-01-28T10:08:13.984Z,16.00
2023-01-28T10:13:31.026Z,16.10
2023-01-28T10:18:54.653Z,12.90
2023-01-28T10:24:02.344Z,13.23
2023-01-28T10:29:18.893Z,14.35
2023-01-28T10:34:24.649Z,15.48
2023-01-28T10:39:28.833Z,14.18
2023-01-28T10:44:39.239Z,15.45
2023-01-28T10:49:55.768Z,15.02
2023-01-28T10:55:06.314Z,11.88
2023-01-28T11:00:33.768Z,11.18
2023-01-28T11:05:38.935Z,10.95
2023-01-28T11:10:41.937Z,11.02
2023-01-28T11:16:08.137Z,10.73
2023-01-28T11:21:25.121Z,22.70
2023-01-28T11:26:31.211Z,11.38
2023-01-28T11:31:43.262Z,12.43
2023-01-28T11:36:54.363Z,10.57
2023-01-28T11:42:16.640Z,10.70
2023-01-28T11:47:46.473Z,9.98
2023-01-28T11:53:07.085Z,11.13
2023-01-28T11:58:40.129Z,10.90
2023-01-28T12:03:44.985Z,11.52
2023-01-28T12:09:13.930Z,10.98
2023-01-28T12:14:39.552Z,10.10
2023-01-28T12:20:20.729Z,10.25
2023-01-28T12:31:14.057Z,10.90
2023-01-28T12:36:28.971Z,9.82
2023-01-28T12:41:42.539Z,10.15
2023-01-28T12:46:54.045Z,10.90
2023-01-28T12:52:22.841Z,11.35
2023-01-28T12:57:31.963Z,8.63
2023-01-28T13:02:41.745Z,10.77
2023-01-28T13:07:56.800Z,11.20
2023-01-28T13:13:01.147Z,10.82
2023-01-28T13:18:06.105Z,31.55
2023-01-28T13:23:23.619Z,11.55
2023-01-28T13:28:32.886Z,8.18
2023-01-28T13:33:38.546Z,17.90
2023-01-28T13:38:42.863Z,13.93
2023-01-28T13:43:45.225Z,10.02
2023-01-28T13:48:52.514Z,11.65
2023-01-28T13:54:06.088Z,10.75
2023-01-28T13:59:26.305Z,8.73
2023-01-28T14:04:46.993Z,9.30
2023-01-28T14:10:12.268Z,12.18
2023-01-28T14:15:40.717Z,11.13
2023-01-28T14:20:46.371Z,11.32
2023-01-28T14:26:01.092Z,10.90
2023-01-28T14:31:19.089Z,10.32
2023-01-28T14:36:22.164Z,9.57
2023-01-28T14:41:28.477Z,9.45
2023-01-28T14:46:46.811Z,10.07
2023-01-28T14:52:04.036Z,11.32
2023-01-28T14:57:43.635Z,10.13
2023-01-28T15:02:46.093Z,10.32
2023-01-28T15:07:49.617Z,10.68
2023-01-28T15:12:56.619Z,10.13
2023-01-28T15:18:04.323Z,12.63
2023-01-28T15:23:09.538Z,11.57
2023-01-28T15:28:41.277Z,11.35
2023-01-28T15:33:43.482Z,12.88
2023-01-28T15:38:45.690Z,14.70
2023-01-28T15:43:51.187Z,15.88
2023-01-28T15:49:17.657Z,17.33
2023-01-28T15:54:20.899Z,19.70
2023-01-28T15:59:28.266Z,21.00
2023-01-28T16:04:30.878Z,15.10
2023-01-28T16:09:34.783Z,11.15
2023-01-28T16:14:50.953Z,13.13
2023-01-28T16:20:04.912Z,13.65
2023-01-28T16:25:22.079Z,17.17
2023-01-28T16:30:24.646Z,12.90
2023-01-28T16:35:47.163Z,13.98
2023-01-28T16:40:55.555Z,13.25
2023-01-28T16:45:58.061Z,13.82
2023-01-28T16:51:00.389Z,16.55
2023-01-28T16:56:03.211Z,15.95
2023-01-28T17:01:05.750Z,17.73
2023-01-28T17:06:09.388Z,15.85
2023-01-28T17:11:12.043Z,13.57
2023-01-28T17:16:14.274Z,15.90
2023-01-28T17:21:16.930Z,13.35
2023-01-28T17:26:19.244Z,18.38
2023-01-28T17:31:22.515Z,19.85
2023-01-28T17:36:26.073Z,19.02
2023-01-28T17:41:28.461Z,21.23
2023-01-28T17:46:30.628Z,20.40
2023-01-28T17:51:33.027Z,19.20
2023-01-28T17:56:35.173Z,17.48
2023-01-28T18:01:37.831Z,16.75
2023-01-28T18:06:40.214Z,19.15
2023-01-28T18:11:43.031Z,20.88
2023-01-28T18:16:45.226Z,25.17
2023-01-28T18:21:52.971Z,27.75
2023-01-28T18:27:00.767Z,22.70
2023-01-28T18:32:03.119Z,17.52
2023-01-28T18:37:07.060Z,19.50
2023-01-28T18:42:09.247Z,19.35
2023-01-28T18:47:11.817Z,18.38
2023-01-28T18:52:13.923Z,15.48
2023-01-28T18:57:16.198Z,21.05
2023-01-28T19:02:20.363Z,21.17
2023-01-28T19:07:22.809Z,17.08
2023-01-28T19:12:25.087Z,17.60
2023-01-28T19:17:27.520Z,42.50
2023-01-28T19:22:29.859Z,52.10
2023-01-28T19:27:32.136Z,28.27
2023-01-28T19:32:34.620Z,38.65
2023-01-28T19:37:36.942Z,33.75
2023-01-28T19:42:40.117Z,36.13
2023-01-28T19:47:42.540Z,27.90
2023-01-28T19:52:44.983Z,25.88
2023-01-28T19:57:47.104Z,25.55
2023-01-28T20:02:52.494Z,23.00
2023-01-28T20:07:54.710Z,21.35
2023-01-28T20:12:56.934Z,19.48
2023-01-28T20:17:59.150Z,20.65
2023-01-28T20:23:05.935Z,23.48
2023-01-28T20:28:08.140Z,25.02
2023-01-28T20:33:10.411Z,15.60
2023-01-28T20:38:14.416Z,20.10
2023-01-28T20:43:16.656Z,16.73
2023-01-28T20:48:18.813Z,22.92
2023-01-28T20:53:21.144Z,21.73
2023-01-28T20:58:23.391Z,24.35
2023-01-28T21:03:26.386Z,22.77
2023-01-28T21:08:28.636Z,21.75
2023-01-28T21:13:30.874Z,22.33
2023-01-28T21:18:33.522Z,21.80
2023-01-28T21:23:36.115Z,21.83
2023-01-28T21:28:38.749Z,20.02
2023-01-28T21:33:43.399Z,16.83
2023-01-28T21:38:46.421Z,16.02
2023-01-28T21:43:55.212Z,17.13
2023-01-28T21:48:59.687Z,16.50
2023-01-28T21:54:03.294Z,16.52
2023-01-28T21:59:24.128Z,18.30
2023-01-28T22:04:37.050Z,17.75
2023-01-28T22:09:40.525Z,17.58
2023-01-28T22:14:44.192Z,18.02
2023-01-28T22:19:48.715Z,18.63
2023-01-28T22:24:51.132Z,18.40
2023-01-28T22:29:54.215Z,18.05
2023-01-28T22:34:56.358Z,18.48
2023-01-28T22:39:58.509Z,20.58
2023-01-28T22:45:00.692Z,20.25
2023-01-28T22:50:02.941Z,17.15
2023-01-28T22:55:05.540Z,17.88
2023-01-28T23:00:15.169Z,18.50
2023-01-28T23:05:17.749Z,18.80
2023-01-28T23:10:21.176Z,18.23
2023-01-28T23:15:42.031Z,18.63
2023-01-28T23:21:02.630Z,17.00
2023-01-28T23:31:09.282Z,19.20
2023-01-28T23:36:11.490Z,16.27
2023-01-28T23:41:13.694Z,14.30
2023-01-28T23:46:15.909Z,12.27
2023-01-28T23:51:19.367Z,12.32
2023-01-28T23:56:21.547Z,10.30
